createdAt,value
2018-09-09T00:01:22.664Z,56.63
2018-09-09T00:03:50.745Z,56.29
2018-09-09T00:06:18.878Z,56.47
2018-09-09T00:08:47.027Z,55.90
2018-09-09T00:11:15.061Z,56.27
2018-09-09T00:13:43.138Z,56.60
2018-09-09T00:16:11.200Z,57.29
2018-09-09T00:18:39.389Z,56.72
2018-09-09T00:21:07.632Z,57.20
2018-09-09T00:23:35.733Z,57.29
2018-09-09T00:26:03.852Z,58.67
2018-09-09T00:28:32.020Z,58.61
2018-09-09T00:31:00.285Z,58.45
2018-09-09T00:33:29.342Z,58.40
2018-09-09T00:35:58.742Z,58.91
2018-09-09T00:38:27.075Z,59.49
2018-09-09T00:40:55.160Z,58.79
2018-09-09T00:43:23.291Z,58.85
2018-09-09T00:45:51.563Z,59.40
2018-09-09T00:48:19.692Z,59.25
2018-09-09T00:50:53.152Z,60.06
2018-09-09T00:53:26.620Z,59.51
2018-09-09T00:55:54.781Z,59.84
2018-09-09T00:58:22.910Z,60.31
2018-09-09T01:00:57.069Z,60.30
2018-09-09T01:03:25.215Z,59.91
2018-09-09T01:05:53.367Z,58.91
2018-09-09T01:08:21.551Z,58.46
2018-09-09T01:10:49.672Z,59.07
2018-09-09T01:13:17.779Z,58.86
2018-09-09T01:15:45.973Z,59.28
2018-09-09T01:18:14.042Z,59.23
2018-09-09T01:20:43.262Z,59.64
2018-09-09T01:23:11.363Z,59.56
2018-09-09T01:25:39.460Z,59.44
2018-09-09T01:28:07.559Z,60.58
2018-09-09T01:30:35.666Z,60.31
2018-09-09T01:33:03.782Z,60.75
2018-09-09T01:35:32.096Z,60.33
2018-09-09T01:38:00.220Z,61.18
2018-09-09T01:40:28.864Z,61.26
2018-09-09T01:42:56.942Z,61.31
2018-09-09T01:45:25.055Z,61.89
2018-09-09T01:47:53.138Z,61.76
2018-09-09T01:50:21.303Z,61.96
2018-09-09T01:52:49.383Z,61.96
2018-09-09T01:55:17.449Z,61.23
2018-09-09T01:57:45.768Z,61.79
2018-09-09T02:00:13.907Z,62.22
2018-09-09T02:02:41.952Z,62.29
2018-09-09T02:05:10.068Z,62.23
2018-09-09T02:07:38.711Z,62.42
2018-09-09T02:10:06.767Z,62.16
2018-09-09T02:12:34.827Z,62.84
2018-09-09T02:15:03.759Z,63.03
2018-09-09T02:17:31.827Z,62.78
2018-09-09T02:19:59.949Z,63.15
2018-09-09T02:22:29.013Z,63.21
2018-09-09T02:24:57.110Z,63.17
2018-09-09T02:27:25.369Z,64.42
2018-09-09T02:29:53.441Z,64.31
2018-09-09T02:32:21.519Z,64.53
2018-09-09T02:34:49.913Z,64.94
2018-09-09T02:37:17.982Z,65.04
2018-09-09T02:39:46.128Z,64.52
2018-09-09T02:42:14.204Z,65.12
2018-09-09T02:44:42.311Z,64.76
2018-09-09T02:47:10.344Z,65.02
2018-09-09T02:49:38.388Z,65.12
2018-09-09T02:52:06.663Z,64.63
2018-09-09T02:54:34.802Z,65.43
2018-09-09T02:57:02.851Z,65.06
2018-09-09T02:59:42.117Z,66.24
2018-09-09T03:02:23.289Z,66.00
2018-09-09T03:04:51.551Z,66.43
2018-09-09T03:07:19.664Z,65.85
2018-09-09T03:09:47.930Z,66.82
2018-09-09T03:12:16.089Z,66.82
2018-09-09T03:14:44.551Z,66.68
2018-09-09T03:17:12.663Z,65.85
2018-09-09T03:19:40.701Z,66.90
2018-09-09T03:22:08.788Z,66.75
2018-09-09T03:24:36.947Z,66.42
2018-09-09T03:27:05.010Z,68.03
2018-09-09T03:29:33.124Z,67.53
2018-09-09T03:32:01.312Z,67.96
2018-09-09T03:34:29.454Z,67.12
2018-09-09T03:36:57.548Z,68.21
2018-09-09T03:39:25.619Z,67.39
2018-09-09T03:41:54.552Z,68.12
2018-09-09T03:44:22.639Z,67.03
2018-09-09T03:46:50.719Z,67.78
2018-09-09T03:49:18.822Z,67.98
2018-09-09T03:51:46.905Z,67.93
2018-09-09T03:54:15.039Z,67.98
2018-09-09T03:56:43.246Z,67.36
2018-09-09T03:59:11.221Z,67.85
2018-09-09T04:01:39.406Z,68.11
2018-09-09T04:04:07.505Z,68.08
2018-09-09T04:06:35.650Z,68.27
2018-09-09T04:09:04.781Z,69.07
2018-09-09T04:11:32.920Z,69.84
2018-09-09T04:14:01.045Z,69.29
2018-09-09T04:16:29.563Z,69.44
2018-09-09T04:18:58.796Z,69.47
2018-09-09T04:21:27.020Z,69.62
2018-09-09T04:23:55.146Z,70.45
2018-09-09T04:26:23.319Z,69.15
2018-09-09T04:28:51.419Z,70.01
2018-09-09T04:31:19.594Z,69.72
2018-09-09T04:33:47.723Z,68.89
2018-09-09T04:36:15.885Z,68.64
2018-09-09T04:38:44.051Z,68.38
2018-09-09T04:41:12.942Z,69.57
2018-09-09T04:43:41.635Z,69.53
2018-09-09T04:46:10.598Z,69.59
2018-09-09T04:48:38.859Z,70.41
2018-09-09T04:51:06.657Z,70.03
2018-09-09T04:53:34.829Z,70.17
2018-09-09T04:56:03.003Z,70.21
2018-09-09T04:58:31.273Z,70.87
2018-09-09T05:01:00.018Z,70.40
2018-09-09T05:03:28.142Z,70.61
2018-09-09T05:05:56.309Z,70.44
2018-09-09T05:08:24.492Z,71.08
2018-09-09T05:10:52.723Z,71.08
2018-09-09T05:13:20.881Z,70.07
2018-09-09T05:15:49.154Z,70.14
2018-09-09T05:18:17.421Z,70.73
2018-09-09T05:20:45.590Z,70.89
2018-09-09T05:23:13.931Z,70.77
2018-09-09T05:25:42.134Z,70.28
2018-09-09T05:28:10.254Z,69.60
2018-09-09T05:30:38.386Z,70.36
2018-09-09T05:33:06.601Z,69.61
2018-09-09T05:35:34.714Z,69.34
2018-09-09T05:38:03.875Z,69.70
2018-09-09T05:40:32.043Z,69.32
2018-09-09T05:43:00.190Z,69.56
2018-09-09T05:45:28.275Z,69.98
2018-09-09T05:47:56.435Z,69.44
2018-09-09T05:50:24.521Z,70.40
2018-09-09T05:52:52.619Z,69.13
2018-09-09T05:55:20.798Z,69.47
2018-09-09T05:57:48.978Z,70.29
2018-09-09T06:00:16.995Z,69.34
2018-09-09T06:02:45.111Z,69.33
2018-09-09T06:05:13.202Z,69.55
2018-09-09T06:07:41.334Z,69.84
2018-09-09T06:10:09.443Z,70.79
2018-09-09T06:12:37.649Z,69.91
2018-09-09T06:15:06.348Z,69.38
2018-09-09T06:17:34.450Z,69.65
2018-09-09T06:20:02.633Z,69.93
2018-09-09T06:22:30.741Z,69.81
2018-09-09T06:24:58.833Z,69.95
2018-09-09T06:27:26.951Z,71.64
2018-09-09T06:29:54.997Z,70.96
2018-09-09T06:32:23.142Z,70.92
2018-09-09T06:34:51.245Z,70.45
2018-09-09T06:37:19.488Z,70.57
2018-09-09T06:39:47.579Z,69.98
2018-09-09T06:42:15.792Z,71.66
2018-09-09T06:44:44.066Z,70.93
2018-09-09T06:47:12.678Z,71.13
2018-09-09T06:49:41.023Z,71.55
2018-09-09T06:52:09.519Z,72.07
2018-09-09T06:54:37.756Z,70.40
2018-09-09T06:57:06.005Z,70.86
2018-09-09T06:59:34.071Z,70.92
2018-09-09T07:02:02.167Z,71.40
2018-09-09T07:04:30.371Z,71.05
2018-09-09T07:06:58.454Z,71.11
2018-09-09T07:09:26.546Z,70.16
2018-09-09T07:11:54.797Z,69.74
2018-09-09T07:14:22.811Z,69.47
2018-09-09T07:16:50.930Z,69.56
2018-09-09T07:19:19.085Z,69.75
2018-09-09T07:21:47.180Z,68.22
2018-09-09T07:24:15.268Z,67.98
2018-09-09T07:26:43.402Z,66.50
2018-09-09T07:29:12.001Z,66.05
2018-09-09T07:31:40.177Z,66.28
2018-09-09T07:34:08.560Z,65.50
2018-09-09T07:36:36.689Z,65.45
2018-09-09T07:39:06.019Z,65.32
2018-09-09T07:41:34.150Z,64.40
2018-09-09T07:44:02.234Z,64.97
2018-09-09T07:46:30.692Z,64.46
2018-09-09T07:48:58.714Z,63.84
2018-09-09T07:51:26.861Z,63.21
2018-09-09T07:53:55.145Z,63.74
2018-09-09T07:56:23.279Z,62.78
2018-09-09T07:58:51.369Z,63.17
2018-09-09T08:01:19.462Z,62.74
2018-09-09T08:03:47.586Z,62.17
2018-09-09T08:06:15.837Z,61.96
2018-09-09T08:08:43.976Z,60.97
2018-09-09T08:11:12.165Z,60.04
2018-09-09T08:13:40.529Z,60.63
2018-09-09T08:16:09.100Z,60.16
2018-09-09T08:18:37.371Z,59.95
2018-09-09T08:21:05.564Z,59.57
2018-09-09T08:23:33.741Z,59.34
2018-09-09T08:26:02.075Z,58.82
2018-09-09T08:28:30.807Z,58.24
2018-09-09T08:30:58.907Z,57.41
2018-09-09T08:33:26.977Z,57.08
2018-09-09T08:35:55.056Z,56.89
2018-09-09T08:38:23.269Z,55.37
2018-09-09T08:40:51.342Z,55.04
2018-09-09T08:43:19.648Z,55.93
2018-09-09T08:45:47.778Z,56.26
2018-09-09T08:48:15.936Z,56.09
2018-09-09T08:50:44.022Z,55.66
2018-09-09T08:53:12.107Z,54.67
2018-09-09T08:55:40.194Z,54.40
2018-09-09T08:58:08.347Z,54.19
2018-09-09T09:00:36.593Z,53.84
2018-09-09T09:03:04.840Z,52.75
2018-09-09T09:05:32.927Z,53.99
2018-09-09T09:08:01.053Z,53.70
2018-09-09T09:10:34.494Z,53.08
2018-09-09T09:13:02.658Z,52.96
2018-09-09T09:15:30.943Z,51.39
2018-09-09T09:17:59.151Z,51.78
2018-09-09T09:20:27.300Z,51.55
2018-09-09T09:22:57.781Z,51.28
2018-09-09T09:25:28.358Z,52.21
2018-09-09T09:27:57.699Z,51.52
2018-09-09T09:30:32.426Z,51.31
2018-09-09T09:33:10.632Z,50.53
2018-09-09T09:35:44.274Z,49.92
2018-09-09T09:38:12.516Z,50.09
2018-09-09T09:40:40.635Z,49.78
2018-09-09T09:43:08.793Z,48.16
2018-09-09T09:45:36.931Z,48.75
2018-09-09T09:48:05.050Z,47.96
2018-09-09T09:50:33.256Z,46.97
2018-09-09T09:53:01.428Z,46.65
2018-09-09T09:55:29.547Z,47.10
2018-09-09T09:57:58.056Z,46.70
2018-09-09T10:00:32.641Z,46.99
2018-09-09T10:03:01.587Z,46.48
2018-09-09T10:05:29.695Z,45.33
2018-09-09T10:08:00.774Z,46.04
2018-09-09T10:10:28.871Z,46.11
2018-09-09T10:12:57.101Z,45.78
2018-09-09T10:15:26.575Z,46.33
2018-09-09T10:17:54.618Z,45.14
2018-09-09T10:20:22.824Z,45.42
2018-09-09T10:22:50.962Z,45.20
2018-09-09T10:25:19.008Z,45.72
2018-09-09T10:27:47.088Z,45.61
2018-09-09T10:30:15.285Z,44.25
2018-09-09T10:32:43.474Z,45.23
2018-09-09T10:35:11.590Z,44.66
2018-09-09T10:37:39.701Z,44.12
2018-09-09T10:40:07.897Z,44.22
2018-09-09T10:42:35.968Z,44.10
2018-09-09T10:45:04.175Z,44.27
2018-09-09T10:47:32.345Z,43.66
2018-09-09T10:50:01.463Z,43.45
2018-09-09T10:52:30.175Z,42.79
2018-09-09T10:54:58.403Z,41.86
2018-09-09T10:57:27.333Z,41.67
2018-09-09T10:59:55.539Z,40.97
2018-09-09T11:02:24.819Z,40.96
2018-09-09T11:04:52.983Z,41.47
2018-09-09T11:07:21.565Z,40.87
2018-09-09T11:09:49.744Z,40.22
2018-09-09T11:12:17.881Z,39.87
2018-09-09T11:14:46.026Z,39.46
2018-09-09T11:17:14.155Z,39.85
2018-09-09T11:19:42.278Z,40.50
2018-09-09T11:22:10.410Z,39.23
2018-09-09T11:24:38.637Z,38.09
2018-09-09T11:27:06.646Z,39.15
2018-09-09T11:29:34.754Z,38.45
2018-09-09T11:32:02.890Z,38.43
2018-09-09T11:34:31.528Z,37.39
2018-09-09T11:36:59.751Z,38.50
2018-09-09T11:39:28.184Z,37.04
2018-09-09T11:41:56.390Z,36.45
2018-09-09T11:44:24.515Z,36.81
2018-09-09T11:46:52.665Z,36.96
2018-09-09T11:49:20.805Z,35.61
2018-09-09T11:51:48.943Z,35.68
2018-09-09T11:54:18.497Z,32.13
2018-09-09T11:56:46.627Z,31.75
2018-09-09T11:59:14.761Z,32.60
2018-09-09T12:01:43.003Z,32.46
2018-09-09T12:04:11.111Z,32.15
2018-09-09T12:06:39.264Z,32.78
2018-09-09T12:09:09.288Z,32.18
2018-09-09T12:11:37.496Z,31.59
2018-09-09T12:14:05.800Z,32.03
2018-09-09T12:16:33.942Z,31.03
2018-09-09T12:19:02.501Z,29.78
2018-09-09T12:21:30.656Z,29.58
2018-09-09T12:23:58.782Z,29.75
2018-09-09T12:26:26.934Z,27.39
2018-09-09T12:28:55.110Z,26.42
2018-09-09T12:31:23.502Z,28.93
2018-09-09T12:33:51.579Z,29.78
2018-09-09T12:36:19.674Z,28.54
2018-09-09T12:38:47.800Z,24.19
2018-09-09T12:41:15.967Z,23.71
2018-09-09T12:43:49.290Z,23.30
2018-09-09T12:46:22.748Z,23.98
2018-09-09T12:48:56.094Z,25.94
2018-09-09T12:51:24.236Z,27.05
2018-09-09T12:53:52.323Z,27.38
2018-09-09T12:56:20.458Z,27.89
2018-09-09T12:58:48.538Z,28.36
2018-09-09T13:01:16.670Z,29.29
2018-09-09T13:03:44.798Z,30.10
2018-09-09T13:06:13.030Z,29.98
2018-09-09T13:08:41.145Z,29.17
2018-09-09T13:11:09.365Z,27.36
2018-09-09T13:13:37.739Z,26.84
2018-09-09T13:16:06.492Z,26.68
2018-09-09T13:18:34.596Z,26.11
2018-09-09T13:21:02.762Z,26.84
2018-09-09T13:23:30.949Z,24.88
2018-09-09T13:25:59.014Z,21.53
2018-09-09T13:28:27.103Z,19.08
2018-09-09T13:30:55.352Z,16.70
2018-09-09T13:33:23.522Z,16.62
2018-09-09T13:35:51.760Z,15.64
2018-09-09T13:38:20.117Z,20.53
2018-09-09T13:40:48.312Z,22.92
2018-09-09T13:43:16.678Z,16.63
2018-09-09T13:45:44.955Z,15.39
2018-09-09T13:48:13.140Z,14.81
2018-09-09T13:50:41.938Z,14.82
2018-09-09T13:53:10.100Z,15.16
2018-09-09T13:58:14.235Z,14.02
2018-09-09T14:00:43.602Z,12.24
2018-09-09T14:03:11.771Z,12.44
2018-09-09T14:05:41.562Z,11.22
2018-09-09T14:08:09.829Z,11.45
2018-09-09T14:10:38.057Z,11.06
2018-09-09T14:13:06.416Z,11.49
2018-09-09T14:15:34.974Z,10.95
2018-09-09T14:18:03.265Z,11.56
2018-09-09T14:20:32.247Z,13.06
2018-09-09T14:23:00.478Z,16.03
2018-09-09T14:25:28.686Z,17.71
2018-09-09T14:27:56.872Z,19.58
2018-09-09T14:30:25.792Z,18.50
2018-09-09T14:32:54.095Z,17.46
2018-09-09T14:35:22.255Z,12.85
2018-09-09T14:37:50.580Z,11.20
2018-09-09T14:40:18.803Z,11.77
2018-09-09T14:42:47.011Z,14.93
2018-09-09T14:45:15.462Z,14.10
2018-09-09T14:47:44.113Z,14.28
2018-09-09T14:50:12.299Z,14.63
2018-09-09T14:52:40.777Z,15.59
2018-09-09T14:55:09.021Z,16.66
2018-09-09T14:57:37.223Z,16.08
2018-09-09T15:00:05.331Z,13.20
2018-09-09T15:02:33.539Z,12.72
2018-09-09T15:09:59.500Z,13.58
2018-09-09T15:12:27.856Z,13.04
2018-09-09T15:14:55.970Z,12.36
2018-09-09T15:17:24.263Z,11.94
2018-09-09T15:19:52.500Z,12.01
2018-09-09T15:22:20.823Z,14.19
2018-09-09T15:24:49.926Z,14.04
2018-09-09T15:27:18.050Z,13.78
2018-09-09T15:29:46.458Z,13.97
2018-09-09T15:32:14.674Z,15.13
2018-09-09T15:34:42.783Z,17.46
2018-09-09T15:37:10.925Z,18.06
2018-09-09T15:39:39.097Z,19.91
2018-09-09T15:42:07.237Z,19.53
2018-09-09T15:44:36.851Z,16.07
2018-09-09T15:47:05.236Z,15.05
2018-09-09T15:49:33.454Z,13.90
2018-09-09T15:52:01.706Z,14.15
2018-09-09T15:54:30.111Z,15.90
2018-09-09T15:56:58.295Z,18.24
2018-09-09T15:59:26.439Z,18.00
2018-09-09T16:01:54.704Z,17.18
2018-09-09T16:04:22.861Z,19.37
2018-09-09T16:06:51.913Z,19.19
2018-09-09T16:09:20.227Z,20.67
2018-09-09T16:11:48.426Z,21.26
2018-09-09T16:14:16.530Z,19.17
2018-09-09T16:16:44.655Z,18.55
2018-09-09T16:19:12.762Z,19.11
2018-09-09T16:21:41.302Z,20.44
2018-09-09T16:24:09.403Z,21.00
2018-09-09T16:26:37.575Z,21.10
2018-09-09T16:29:05.713Z,21.99
2018-09-09T16:31:33.819Z,23.38
2018-09-09T16:34:02.983Z,24.35
2018-09-09T16:36:31.102Z,24.55
2018-09-09T16:38:59.331Z,25.04
2018-09-09T16:41:27.984Z,25.02
2018-09-09T16:43:56.250Z,24.49
2018-09-09T16:46:24.377Z,24.44
2018-09-09T16:48:52.485Z,24.94
2018-09-09T16:51:20.600Z,24.80
2018-09-09T16:53:48.732Z,25.08
2018-09-09T16:56:16.863Z,25.18
2018-09-09T16:58:44.974Z,25.84
2018-09-09T17:01:13.275Z,26.50
2018-09-09T17:03:41.426Z,26.83
2018-09-09T17:06:09.576Z,26.74
2018-09-09T17:08:37.771Z,27.68
2018-09-09T17:11:06.174Z,27.92
2018-09-09T17:13:34.322Z,27.82
2018-09-09T17:16:03.269Z,27.67
2018-09-09T17:18:31.426Z,27.89
2018-09-09T17:21:00.294Z,28.10
2018-09-09T17:23:29.001Z,28.71
2018-09-09T17:25:58.017Z,29.35
2018-09-09T17:28:26.148Z,28.85
2018-09-09T17:30:55.162Z,29.07
2018-09-09T17:33:23.361Z,29.58
2018-09-09T17:35:52.066Z,29.67
2018-09-09T17:38:20.274Z,29.80
2018-09-09T17:40:48.497Z,30.11
2018-09-09T17:43:16.610Z,30.23
2018-09-09T17:45:44.882Z,30.97
2018-09-09T17:48:13.096Z,30.43
2018-09-09T17:50:41.433Z,30.66
2018-09-09T17:53:09.570Z,31.56
2018-09-09T17:55:37.687Z,32.22
2018-09-09T17:58:05.777Z,33.09
2018-09-09T18:00:33.982Z,33.33
2018-09-09T18:03:02.901Z,33.77
2018-09-09T18:05:31.199Z,33.47
2018-09-09T18:07:59.326Z,34.99
2018-09-09T18:10:27.502Z,35.16
2018-09-09T18:12:55.622Z,34.27
2018-09-09T18:15:23.831Z,34.51
2018-09-09T18:17:54.968Z,36.13
2018-09-09T18:20:23.069Z,36.08
2018-09-09T18:22:51.355Z,36.11
2018-09-09T18:25:19.520Z,37.63
2018-09-09T18:27:47.798Z,37.25
2018-09-09T18:30:15.937Z,36.92
2018-09-09T18:32:44.021Z,37.76
2018-09-09T18:35:12.206Z,38.39
2018-09-09T18:37:40.283Z,38.35
2018-09-09T18:40:08.608Z,38.55
2018-09-09T18:42:36.695Z,39.08
2018-09-09T18:45:06.213Z,38.49
2018-09-09T18:47:34.245Z,39.59
2018-09-09T18:50:02.627Z,38.68
2018-09-09T18:52:30.745Z,39.15
2018-09-09T18:54:58.841Z,39.60
2018-09-09T18:57:27.062Z,39.56
2018-09-09T18:59:57.886Z,40.58
2018-09-09T19:02:26.027Z,39.71
2018-09-09T19:04:54.231Z,40.40
2018-09-09T19:07:22.313Z,40.13
2018-09-09T19:09:50.473Z,40.17
2018-09-09T19:12:18.616Z,40.96
2018-09-09T19:14:46.975Z,40.96
2018-09-09T19:17:15.168Z,41.23
2018-09-09T19:19:43.410Z,41.17
2018-09-09T19:22:11.550Z,41.79
2018-09-09T19:24:39.637Z,41.23
2018-09-09T19:27:07.758Z,40.82
2018-09-09T19:29:36.129Z,41.72
2018-09-09T19:32:04.396Z,41.84
2018-09-09T19:34:32.631Z,41.82
2018-09-09T19:37:00.686Z,41.69
2018-09-09T19:39:28.783Z,41.96
2018-09-09T19:41:56.901Z,41.65
2018-09-09T19:44:25.366Z,41.82
2018-09-09T19:46:53.446Z,41.79
2018-09-09T19:49:21.683Z,41.91
2018-09-09T19:51:49.939Z,42.59
2018-09-09T19:54:18.044Z,42.71
2018-09-09T19:56:46.149Z,42.02
2018-09-09T19:59:14.251Z,42.46
2018-09-09T20:01:42.351Z,42.50
2018-09-09T20:04:10.626Z,42.94
2018-09-09T20:06:38.986Z,42.58
2018-09-09T20:09:07.838Z,42.82
2018-09-09T20:11:36.051Z,43.43
2018-09-09T20:14:04.254Z,43.25
2018-09-09T20:16:32.359Z,42.26
2018-09-09T20:19:00.470Z,42.22
2018-09-09T20:21:28.680Z,43.02
2018-09-09T20:23:56.774Z,43.13
2018-09-09T20:26:24.989Z,43.46
2018-09-09T20:28:53.140Z,42.72
2018-09-09T20:31:21.260Z,43.09
2018-09-09T20:33:49.375Z,42.73
2018-09-09T20:36:17.473Z,42.92
2018-09-09T20:41:12.911Z,43.80
2018-09-09T20:43:41.019Z,43.09
2018-09-09T20:46:09.214Z,42.69
2018-09-09T20:48:37.673Z,43.90
2018-09-09T20:51:05.807Z,43.20
2018-09-09T20:53:34.302Z,44.32
2018-09-09T20:56:02.440Z,43.58
2018-09-09T20:58:30.575Z,43.72
2018-09-09T21:00:58.855Z,44.25
2018-09-09T21:03:26.969Z,43.52
2018-09-09T21:05:55.147Z,44.02
2018-09-09T21:08:23.281Z,44.32
2018-09-09T21:10:51.600Z,44.38
2018-09-09T21:13:20.265Z,44.01
2018-09-09T21:15:48.369Z,45.04
2018-09-09T21:18:16.645Z,45.35
2018-09-09T21:20:44.981Z,44.52
2018-09-09T21:23:13.176Z,45.31
2018-09-09T21:25:41.371Z,45.35
2018-09-09T21:28:09.507Z,46.11
2018-09-09T21:30:37.721Z,45.62
2018-09-09T21:33:06.029Z,45.69
2018-09-09T21:35:34.577Z,45.81
2018-09-09T21:38:02.831Z,45.64
2018-09-09T21:40:30.926Z,46.30
2018-09-09T21:42:59.124Z,45.92
2018-09-09T21:45:27.222Z,45.94
2018-09-09T21:47:55.362Z,46.36
2018-09-09T21:50:23.542Z,46.79
2018-09-09T21:52:51.653Z,46.51
2018-09-09T21:55:19.792Z,47.27
2018-09-09T21:57:47.962Z,47.58
2018-09-09T22:00:16.071Z,46.89
2018-09-09T22:02:44.212Z,46.87
2018-09-09T22:05:12.896Z,46.79
2018-09-09T22:07:41.115Z,46.77
2018-09-09T22:10:09.210Z,47.42
2018-09-09T22:12:37.467Z,47.23
2018-09-09T22:15:06.301Z,47.87
2018-09-09T22:17:34.777Z,48.04
2018-09-09T22:20:03.047Z,48.02
2018-09-09T22:22:31.702Z,48.03
2018-09-09T22:24:59.799Z,48.12
2018-09-09T22:27:28.240Z,48.96
2018-09-09T22:29:57.516Z,48.84
2018-09-09T22:32:26.425Z,49.00
2018-09-09T22:34:56.070Z,48.90
2018-09-09T22:37:24.137Z,49.17
2018-09-09T22:39:52.449Z,49.28
2018-09-09T22:42:20.658Z,49.56
2018-09-09T22:44:48.744Z,49.91
2018-09-09T22:47:17.690Z,50.62
2018-09-09T22:49:46.551Z,50.41
2018-09-09T22:52:15.011Z,50.70
2018-09-09T22:54:43.210Z,51.08
2018-09-09T22:57:11.843Z,50.76
2018-09-09T22:59:39.953Z,51.03
2018-09-09T23:02:08.578Z,51.58
2018-09-09T23:04:36.705Z,52.15
2018-09-09T23:07:04.791Z,51.66
2018-09-09T23:09:33.181Z,51.66
2018-09-09T23:12:01.811Z,51.22
2018-09-09T23:14:30.643Z,51.54
2018-09-09T23:16:58.807Z,51.75
2018-09-09T23:19:27.110Z,52.59
2018-09-09T23:21:55.297Z,52.66
2018-09-09T23:24:25.381Z,52.22
2018-09-09T23:26:53.515Z,52.36
2018-09-09T23:29:22.467Z,53.06
2018-09-09T23:31:50.624Z,53.60
2018-09-09T23:34:20.096Z,53.63
2018-09-09T23:36:48.180Z,53.76
2018-09-09T23:39:16.298Z,54.15
2018-09-09T23:41:44.402Z,54.72
2018-09-09T23:44:13.629Z,54.52
2018-09-09T23:46:41.708Z,54.01
2018-09-09T23:49:09.951Z,53.74
2018-09-09T23:51:38.117Z,53.87
2018-09-09T23:54:07.418Z,54.88
2018-09-09T23:56:39.703Z,54.85
2018-09-09T23:59:07.899Z,55.38
